sensor_id;sensor_type;location;lat;lon;timestamp;pressure;altitude;pressure_sealevel;temperature;humidity
1832;BME280;1680;48.106;11.708;2022-12-29T00:00:24;95380.16;;;3.73;97.35
1832;BME280;1680;48.106;11.708;2022-12-29T00:02:51;95384.91;;;3.70;97.58
1832;BME280;1680;48.106;11.708;2022-12-29T00:05:20;95323.13;;;3.38;96.60
1832;BME280;1680;48.106;11.708;2022-12-29T00:07:47;95375.75;;;3.74;97.65
1832;BME280;1680;48.106;11.708;2022-12-29T00:10:15;95376.75;;;3.73;97.61
1832;BME280;1680;48.106;11.708;2022-12-29T00:12:42;95392.44;;;3.65;97.65
1832;BME280;1680;48.106;11.708;2022-12-29T00:15:27;95376.94;;;3.71;97.85
1832;BME280;1680;48.106;11.708;2022-12-29T00:18:04;95360.56;;;3.71;96.81
1832;BME280;1680;48.106;11.708;2022-12-29T00:20:34;95375.56;;;3.75;96.92
1832;BME280;1680;48.106;11.708;2022-12-29T00:23:20;95356.16;;;3.65;96.95
1832;BME280;1680;48.106;11.708;2022-12-29T00:26:11;95368.13;;;3.66;96.86
1832;BME280;1680;48.106;11.708;2022-12-29T00:28:57;95364.72;;;3.65;97.37
1832;BME280;1680;48.106;11.708;2022-12-29T00:31:42;95360.16;;;3.67;96.83
1832;BME280;1680;48.106;11.708;2022-12-29T00:34:27;95365.41;;;3.74;96.67
1832;BME280;1680;48.106;11.708;2022-12-29T00:37:13;95359.09;;;3.82;95.09
1832;BME280;1680;48.106;11.708;2022-12-29T00:39:41;95353.47;;;3.79;95.59
1832;BME280;1680;48.106;11.708;2022-12-29T00:42:26;95351.69;;;3.80;95.89
1832;BME280;1680;48.106;11.708;2022-12-29T00:45:12;95360.22;;;3.74;95.90
1832;BME280;1680;48.106;11.708;2022-12-29T00:47:39;95351.81;;;3.72;97.24
1832;BME280;1680;48.106;11.708;2022-12-29T00:50:07;95348.44;;;3.71;96.85
1832;BME280;1680;48.106;11.708;2022-12-29T00:52:35;95355.50;;;3.83;95.31
1832;BME280;1680;48.106;11.708;2022-12-29T00:55:03;95359.84;;;3.77;95.10
1832;BME280;1680;48.106;11.708;2022-12-29T00:57:30;95344.59;;;3.67;94.79
1832;BME280;1680;48.106;11.708;2022-12-29T00:59:58;95354.16;;;3.67;96.02
1832;BME280;1680;48.106;11.708;2022-12-29T01:02:25;95347.75;;;3.63;95.16
1832;BME280;1680;48.106;11.708;2022-12-29T01:04:52;95346.69;;;3.57;96.38
1832;BME280;1680;48.106;11.708;2022-12-29T01:07:20;95365.34;;;3.67;95.76
1832;BME280;1680;48.106;11.708;2022-12-29T01:09:49;95363.72;;;3.66;95.04
1832;BME280;1680;48.106;11.708;2022-12-29T01:12:35;95350.56;;;3.47;96.20
1832;BME280;1680;48.106;11.708;2022-12-29T01:15:11;95358.41;;;3.53;96.11
1832;BME280;1680;48.106;11.708;2022-12-29T01:17:40;95361.78;;;3.54;95.06
1832;BME280;1680;48.106;11.708;2022-12-29T01:20:08;95357.00;;;3.51;96.65
1832;BME280;1680;48.106;11.708;2022-12-29T01:22:36;95339.44;;;3.32;96.25
1832;BME280;1680;48.106;11.708;2022-12-29T01:25:06;95367.47;;;3.43;97.40
1832;BME280;1680;48.106;11.708;2022-12-29T01:27:33;95368.72;;;3.47;96.41
1832;BME280;1680;48.106;11.708;2022-12-29T01:30:00;95369.97;;;3.51;95.66
1832;BME280;1680;48.106;11.708;2022-12-29T01:32:28;95369.97;;;3.51;95.92
1832;BME280;1680;48.106;11.708;2022-12-29T01:34:55;95380.69;;;3.48;95.38
1832;BME280;1680;48.106;11.708;2022-12-29T01:37:23;95351.06;;;3.36;96.73
1832;BME280;1680;48.106;11.708;2022-12-29T01:39:50;95370.75;;;3.51;95.95
1832;BME280;1680;48.106;11.708;2022-12-29T01:42:23;95354.00;;;3.54;96.45
1832;BME280;1680;48.106;11.708;2022-12-29T01:44:53;95366.88;;;3.62;94.71
1832;BME280;1680;48.106;11.708;2022-12-29T01:47:26;95371.56;;;3.52;95.07
1832;BME280;1680;48.106;11.708;2022-12-29T01:49:58;95366.00;;;3.55;95.44
1832;BME280;1680;48.106;11.708;2022-12-29T01:52:29;95365.63;;;3.58;94.33
1832;BME280;1680;48.106;11.708;2022-12-29T01:54:58;95349.22;;;3.51;94.67
1832;BME280;1680;48.106;11.708;2022-12-29T01:57:31;95352.31;;;3.61;95.63
1832;BME280;1680;48.106;11.708;2022-12-29T02:00:01;95368.66;;;3.61;94.06
1832;BME280;1680;48.106;11.708;2022-12-29T02:02:30;95358.84;;;3.57;94.75
1832;BME280;1680;48.106;11.708;2022-12-29T02:04:59;95352.03;;;3.56;94.12
1832;BME280;1680;48.106;11.708;2022-12-29T02:07:29;95361.84;;;3.60;93.48
1832;BME280;1680;48.106;11.708;2022-12-29T02:09:57;95353.28;;;3.60;94.64
1832;BME280;1680;48.106;11.708;2022-12-29T02:12:25;95354.06;;;3.60;94.69
1832;BME280;1680;48.106;11.708;2022-12-29T02:14:56;95358.13;;;3.63;94.49
1832;BME280;1680;48.106;11.708;2022-12-29T02:17:37;95347.13;;;3.61;94.00
1832;BME280;1680;48.106;11.708;2022-12-29T02:26:19;95351.25;;;3.55;93.49
1832;BME280;1680;48.106;11.708;2022-12-29T02:29:15;95357.69;;;3.59;94.34
1832;BME280;1680;48.106;11.708;2022-12-29T02:31:53;95346.38;;;3.46;94.17
1832;BME280;1680;48.106;11.708;2022-12-29T02:34:34;95363.28;;;3.63;93.63
1832;BME280;1680;48.106;11.708;2022-12-29T02:37:13;95351.69;;;3.59;93.85
1832;BME280;1680;48.106;11.708;2022-12-29T02:39:52;95362.88;;;3.59;94.32
1832;BME280;1680;48.106;11.708;2022-12-29T02:42:30;95354.53;;;3.64;94.29
1832;BME280;1680;48.106;11.708;2022-12-29T02:45:04;95321.38;;;3.38;94.31
1832;BME280;1680;48.106;11.708;2022-12-29T02:47:39;95349.34;;;3.64;93.85
1832;BME280;1680;48.106;11.708;2022-12-29T02:50:13;95358.59;;;3.73;92.45
1832;BME280;1680;48.106;11.708;2022-12-29T02:52:46;95308.66;;;3.43;94.02
1832;BME280;1680;48.106;11.708;2022-12-29T02:55:15;95330.53;;;3.55;93.22
1832;BME280;1680;48.106;11.708;2022-12-29T02:57:41;95305.63;;;3.40;94.13
1832;BME280;1680;48.106;11.708;2022-12-29T03:00:12;95356.16;;;3.65;94.50
1832;BME280;1680;48.106;11.708;2022-12-29T03:03:08;95343.53;;;3.62;95.12
1832;BME280;1680;48.106;11.708;2022-12-29T03:05:57;95336.69;;;3.75;94.07
1832;BME280;1680;48.106;11.708;2022-12-29T03:08:33;95337.84;;;3.73;92.39
1832;BME280;1680;48.106;11.708;2022-12-29T03:11:08;95341.06;;;3.75;92.09
1832;BME280;1680;48.106;11.708;2022-12-29T03:13:59;95335.25;;;3.73;93.84
1832;BME280;1680;48.106;11.708;2022-12-29T03:16:49;95326.25;;;3.69;92.91
1832;BME280;1680;48.106;11.708;2022-12-29T03:19:21;95331.94;;;3.79;92.88
1832;BME280;1680;48.106;11.708;2022-12-29T03:21:55;95326.75;;;3.79;92.53
1832;BME280;1680;48.106;11.708;2022-12-29T03:24:43;95272.75;;;3.40;92.54
1832;BME280;1680;48.106;11.708;2022-12-29T03:27:18;95290.66;;;3.56;92.64
1832;BME280;1680;48.106;11.708;2022-12-29T03:29:48;95315.00;;;3.82;93.29
1832;BME280;1680;48.106;11.708;2022-12-29T03:32:22;95317.28;;;3.92;91.25
1832;BME280;1680;48.106;11.708;2022-12-29T03:34:53;95310.94;;;3.94;91.65
1832;BME280;1680;48.106;11.708;2022-12-29T03:37:27;95297.72;;;3.89;91.75
1832;BME280;1680;48.106;11.708;2022-12-29T03:39:56;95296.16;;;3.95;92.06
1832;BME280;1680;48.106;11.708;2022-12-29T03:42:30;95309.19;;;4.01;90.30
1832;BME280;1680;48.106;11.708;2022-12-29T03:44:59;95302.34;;;4.21;88.89
1832;BME280;1680;48.106;11.708;2022-12-29T03:47:27;95288.41;;;4.22;87.52
1832;BME280;1680;48.106;11.708;2022-12-29T03:49:55;95288.84;;;4.32;87.40
1832;BME280;1680;48.106;11.708;2022-12-29T03:52:23;95292.91;;;4.41;86.63
1832;BME280;1680;48.106;11.708;2022-12-29T03:54:50;95302.53;;;4.47;86.18
1832;BME280;1680;48.106;11.708;2022-12-29T03:57:17;95307.69;;;4.41;85.77
1832;BME280;1680;48.106;11.708;2022-12-29T03:59:45;95304.88;;;4.42;86.64
1832;BME280;1680;48.106;11.708;2022-12-29T04:02:12;95298.94;;;4.48;85.57
1832;BME280;1680;48.106;11.708;2022-12-29T04:04:40;95256.06;;;4.25;85.90
1832;BME280;1680;48.106;11.708;2022-12-29T04:07:09;95309.78;;;4.58;85.97
1832;BME280;1680;48.106;11.708;2022-12-29T04:09:36;95305.41;;;4.59;86.26
1832;BME280;1680;48.106;11.708;2022-12-29T04:12:04;95213.03;;;4.03;84.74
1832;BME280;1680;48.106;11.708;2022-12-29T04:14:31;95316.44;;;4.67;85.20
1832;BME280;1680;48.106;11.708;2022-12-29T04:17:02;95311.03;;;4.69;85.57
1832;BME280;1680;48.106;11.708;2022-12-29T04:19:29;95307.06;;;4.73;86.01
1832;BME280;1680;48.106;11.708;2022-12-29T04:21:56;95303.47;;;4.74;85.25
1832;BME280;1680;48.106;11.708;2022-12-29T04:24:25;95306.72;;;4.82;86.08
1832;BME280;1680;48.106;11.708;2022-12-29T04:26:52;95304.75;;;4.84;85.57
1832;BME280;1680;48.106;11.708;2022-12-29T04:29:19;95304.50;;;4.79;85.09
1832;BME280;1680;48.106;11.708;2022-12-29T04:31:47;95307.94;;;4.86;84.24
1832;BME280;1680;48.106;11.708;2022-12-29T04:34:14;95291.53;;;4.85;85.28
1832;BME280;1680;48.106;11.708;2022-12-29T04:36:42;95301.97;;;4.92;85.27
1832;BME280;1680;48.106;11.708;2022-12-29T04:39:09;95303.19;;;4.96;84.30
1832;BME280;1680;48.106;11.708;2022-12-29T04:41:37;95306.41;;;4.98;84.17
1832;BME280;1680;48.106;11.708;2022-12-29T04:44:05;95305.59;;;4.97;84.17
1832;BME280;1680;48.106;11.708;2022-12-29T04:46:32;95296.75;;;4.92;84.99
1832;BME280;1680;48.106;11.708;2022-12-29T04:49:03;95302.41;;;5.02;85.47
1832;BME280;1680;48.106;11.708;2022-12-29T04:51:34;95304.00;;;5.03;85.03
1832;BME280;1680;48.106;11.708;2022-12-29T04:54:01;95286.84;;;5.08;83.36
1832;BME280;1680;48.106;11.708;2022-12-29T04:56:28;95291.09;;;5.16;83.06
1832;BME280;1680;48.106;11.708;2022-12-29T04:58:57;95290.44;;;5.07;83.57
1832;BME280;1680;48.106;11.708;2022-12-29T05:01:24;95297.03;;;5.10;84.52
1832;BME280;1680;48.106;11.708;2022-12-29T05:03:52;95284.06;;;5.10;83.80
1832;BME280;1680;48.106;11.708;2022-12-29T05:06:19;95285.88;;;5.09;84.23
1832;BME280;1680;48.106;11.708;2022-12-29T05:08:49;95263.59;;;4.94;82.74
1832;BME280;1680;48.106;11.708;2022-12-29T05:11:21;95289.28;;;5.16;82.96
1832;BME280;1680;48.106;11.708;2022-12-29T05:13:49;95286.03;;;5.08;84.38
1832;BME280;1680;48.106;11.708;2022-12-29T05:16:17;95277.25;;;5.09;83.40
1832;BME280;1680;48.106;11.708;2022-12-29T05:18:45;95286.47;;;5.18;83.62
1832;BME280;1680;48.106;11.708;2022-12-29T05:21:12;95288.91;;;5.26;82.71
1832;BME280;1680;48.106;11.708;2022-12-29T05:23:39;95292.72;;;5.30;83.14
1832;BME280;1680;48.106;11.708;2022-12-29T05:26:07;95291.50;;;5.26;82.88
1832;BME280;1680;48.106;11.708;2022-12-29T05:28:34;95286.91;;;5.21;82.70
1832;BME280;1680;48.106;11.708;2022-12-29T05:31:02;95295.88;;;5.25;82.66
1832;BME280;1680;48.106;11.708;2022-12-29T05:33:30;95298.72;;;5.30;82.90
1832;BME280;1680;48.106;11.708;2022-12-29T05:36:03;95297.50;;;5.33;83.20
1832;BME280;1680;48.106;11.708;2022-12-29T05:38:33;95245.22;;;4.95;82.66
1832;BME280;1680;48.106;11.708;2022-12-29T05:41:01;95301.09;;;5.25;83.41
1832;BME280;1680;48.106;11.708;2022-12-29T05:43:28;95293.69;;;5.22;83.23
1832;BME280;1680;48.106;11.708;2022-12-29T05:45:56;95300.56;;;5.49;81.76
1832;BME280;1680;48.106;11.708;2022-12-29T05:48:24;95289.16;;;5.44;82.79
1832;BME280;1680;48.106;11.708;2022-12-29T05:50:53;95293.72;;;5.35;83.07
1832;BME280;1680;48.106;11.708;2022-12-29T05:53:20;95280.28;;;5.19;82.14
1832;BME280;1680;48.106;11.708;2022-12-29T05:55:48;95295.94;;;5.32;83.06
1832;BME280;1680;48.106;11.708;2022-12-29T05:58:15;95281.72;;;5.28;83.63
1832;BME280;1680;48.106;11.708;2022-12-29T06:00:43;95290.16;;;5.43;82.81
1832;BME280;1680;48.106;11.708;2022-12-29T06:03:10;95288.53;;;5.35;82.43
1832;BME280;1680;48.106;11.708;2022-12-29T06:05:38;95270.50;;;5.27;83.13
1832;BME280;1680;48.106;11.708;2022-12-29T06:08:09;95263.69;;;5.26;84.05
1832;BME280;1680;48.106;11.708;2022-12-29T06:10:36;95275.72;;;5.34;83.27
1832;BME280;1680;48.106;11.708;2022-12-29T06:13:03;95275.72;;;5.34;82.05
1832;BME280;1680;48.106;11.708;2022-12-29T06:15:32;95284.94;;;5.43;82.34
1832;BME280;1680;48.106;11.708;2022-12-29T06:17:59;95265.31;;;5.34;82.66
1832;BME280;1680;48.106;11.708;2022-12-29T06:20:30;95266.53;;;5.38;82.39
1832;BME280;1680;48.106;11.708;2022-12-29T06:22:57;95295.75;;;5.40;82.92
1832;BME280;1680;48.106;11.708;2022-12-29T06:25:26;95288.94;;;5.39;83.69
1832;BME280;1680;48.106;11.708;2022-12-29T06:27:56;95295.34;;;5.43;83.84
1832;BME280;1680;48.106;11.708;2022-12-29T06:30:23;95290.53;;;5.40;83.00
1832;BME280;1680;48.106;11.708;2022-12-29T06:32:51;95297.56;;;5.39;83.39
1832;BME280;1680;48.106;11.708;2022-12-29T06:35:19;95274.09;;;5.33;81.50
1832;BME280;1680;48.106;11.708;2022-12-29T06:37:49;95299.56;;;5.44;83.35
1832;BME280;1680;48.106;11.708;2022-12-29T06:40:16;95288.56;;;5.55;82.01
1832;BME280;1680;48.106;11.708;2022-12-29T06:42:48;95295.00;;;5.59;82.45
1832;BME280;1680;48.106;11.708;2022-12-29T06:45:15;95287.78;;;5.54;82.48
1832;BME280;1680;48.106;11.708;2022-12-29T06:47:43;95293.34;;;5.45;82.93
1832;BME280;1680;48.106;11.708;2022-12-29T06:50:10;95301.78;;;5.47;83.20
1832;BME280;1680;48.106;11.708;2022-12-29T06:52:38;95283.72;;;5.39;82.91
1832;BME280;1680;48.106;11.708;2022-12-29T06:55:06;95302.56;;;5.47;82.36
1832;BME280;1680;48.106;11.708;2022-12-29T06:57:33;95298.75;;;5.43;82.80
1832;BME280;1680;48.106;11.708;2022-12-29T07:00:02;95298.56;;;5.45;84.02
1832;BME280;1680;48.106;11.708;2022-12-29T07:02:30;95304.56;;;5.52;83.40
1832;BME280;1680;48.106;11.708;2022-12-29T07:04:57;95289.31;;;5.36;82.31
1832;BME280;1680;48.106;11.708;2022-12-29T07:07:25;95307.78;;;5.54;82.25
1832;BME280;1680;48.106;11.708;2022-12-29T07:09:52;95313.56;;;5.56;81.93
1832;BME280;1680;48.106;11.708;2022-12-29T07:12:20;95307.34;;;5.44;82.20
1832;BME280;1680;48.106;11.708;2022-12-29T07:14:47;95320.97;;;5.52;82.38
1832;BME280;1680;48.106;11.708;2022-12-29T07:17:16;95316.78;;;5.58;82.85
1832;BME280;1680;48.106;11.708;2022-12-29T07:19:43;95315.78;;;5.59;82.41
1832;BME280;1680;48.106;11.708;2022-12-29T07:22:10;95303.16;;;5.43;81.96
1832;BME280;1680;48.106;11.708;2022-12-29T07:24:37;95323.59;;;5.59;81.70
1832;BME280;1680;48.106;11.708;2022-12-29T07:27:14;95324.78;;;5.56;82.72
1832;BME280;1680;48.106;11.708;2022-12-29T07:29:41;95336.22;;;5.62;80.78
1832;BME280;1680;48.106;11.708;2022-12-29T07:32:09;95303.78;;;5.51;81.53
1832;BME280;1680;48.106;11.708;2022-12-29T07:34:37;95345.06;;;5.80;79.57
1832;BME280;1680;48.106;11.708;2022-12-29T07:37:05;95333.63;;;5.74;80.05
1832;BME280;1680;48.106;11.708;2022-12-29T07:39:32;95305.00;;;5.62;79.24
1832;BME280;1680;48.106;11.708;2022-12-29T07:42:00;95345.69;;;5.95;79.51
1832;BME280;1680;48.106;11.708;2022-12-29T07:44:30;95352.91;;;5.86;80.16
1832;BME280;1680;48.106;11.708;2022-12-29T07:47:02;95345.47;;;5.83;80.77
1832;BME280;1680;48.106;11.708;2022-12-29T07:49:29;95358.25;;;5.78;80.37
1832;BME280;1680;48.106;11.708;2022-12-29T07:51:57;95351.03;;;5.74;81.74
1832;BME280;1680;48.106;11.708;2022-12-29T07:54:25;95334.66;;;5.80;79.22
1832;BME280;1680;48.106;11.708;2022-12-29T07:56:52;95362.69;;;5.84;79.32
1832;BME280;1680;48.106;11.708;2022-12-29T07:59:19;95345.25;;;5.78;80.50
1832;BME280;1680;48.106;11.708;2022-12-29T08:01:47;95308.16;;;5.44;79.61
1832;BME280;1680;48.106;11.708;2022-12-29T08:04:14;95336.22;;;5.68;80.46
1832;BME280;1680;48.106;11.708;2022-12-29T08:06:41;95352.22;;;5.72;80.50
1832;BME280;1680;48.106;11.708;2022-12-29T08:09:12;95354.88;;;5.78;79.55
1832;BME280;1680;48.106;11.708;2022-12-29T08:11:39;95353.50;;;5.82;79.72
1832;BME280;1680;48.106;11.708;2022-12-29T08:14:06;95357.50;;;5.84;80.05
1832;BME280;1680;48.106;11.708;2022-12-29T08:16:34;95357.09;;;5.87;78.41
1832;BME280;1680;48.106;11.708;2022-12-29T08:19:01;95361.91;;;5.90;79.33
1832;BME280;1680;48.106;11.708;2022-12-29T08:21:29;95302.59;;;5.67;79.06
1832;BME280;1680;48.106;11.708;2022-12-29T08:23:58;95360.72;;;5.99;78.53
1832;BME280;1680;48.106;11.708;2022-12-29T08:26:29;95355.72;;;6.04;78.21
1832;BME280;1680;48.106;11.708;2022-12-29T08:28:56;95361.53;;;6.19;77.53
1832;BME280;1680;48.106;11.708;2022-12-29T08:31:23;95353.72;;;6.06;78.22
1832;BME280;1680;48.106;11.708;2022-12-29T08:33:51;95352.31;;;6.17;77.15
1832;BME280;1680;48.106;11.708;2022-12-29T08:36:18;95352.31;;;6.17;78.75
1832;BME280;1680;48.106;11.708;2022-12-29T08:38:48;95352.13;;;6.05;79.21
1832;BME280;1680;48.106;11.708;2022-12-29T08:41:15;95357.34;;;6.18;78.82
1832;BME280;1680;48.106;11.708;2022-12-29T08:43:47;95315.47;;;5.87;79.37
1832;BME280;1680;48.106;11.708;2022-12-29T08:46:14;95321.28;;;5.89;79.29
1832;BME280;1680;48.106;11.708;2022-12-29T08:48:43;95352.31;;;6.23;78.10
1832;BME280;1680;48.106;11.708;2022-12-29T08:51:11;95359.53;;;6.41;78.17
1832;BME280;1680;48.106;11.708;2022-12-29T08:53:38;95361.53;;;6.45;78.58
1832;BME280;1680;48.106;11.708;2022-12-29T08:56:09;95356.28;;;6.71;76.96
1832;BME280;1680;48.106;11.708;2022-12-29T08:58:37;95363.50;;;6.82;76.86
1832;BME280;1680;48.106;11.708;2022-12-29T09:01:06;95363.28;;;6.90;75.51
1832;BME280;1680;48.106;11.708;2022-12-29T09:03:33;95365.47;;;7.06;75.75
1832;BME280;1680;48.106;11.708;2022-12-29T09:06:10;95367.44;;;7.10;74.33
1832;BME280;1680;48.106;11.708;2022-12-29T09:08:37;95369.84;;;7.12;73.49
1832;BME280;1680;48.106;11.708;2022-12-29T09:14:16;95370.63;;;7.19;72.67
1832;BME280;1680;48.106;11.708;2022-12-29T09:16:44;95370.59;;;7.32;72.17
1832;BME280;1680;48.106;11.708;2022-12-29T09:19:33;95374.59;;;7.28;72.42
1832;BME280;1680;48.106;11.708;2022-12-29T09:22:00;95372.00;;;7.28;71.94
1832;BME280;1680;48.106;11.708;2022-12-29T09:24:28;95359.00;;;7.15;72.54
1832;BME280;1680;48.106;11.708;2022-12-29T09:26:56;95374.19;;;7.31;72.06
1832;BME280;1680;48.106;11.708;2022-12-29T09:29:26;95382.97;;;7.43;71.42
1832;BME280;1680;48.106;11.708;2022-12-29T09:31:55;95371.72;;;7.49;72.14
1832;BME280;1680;48.106;11.708;2022-12-29T09:34:22;95382.50;;;7.59;71.79
1832;BME280;1680;48.106;11.708;2022-12-29T09:36:50;95376.50;;;7.58;71.73
1832;BME280;1680;48.106;11.708;2022-12-29T09:39:20;95357.22;;;7.66;71.65
1832;BME280;1680;48.106;11.708;2022-12-29T09:41:56;95379.75;;;7.91;69.76
1832;BME280;1680;48.106;11.708;2022-12-29T09:44:43;95365.22;;;8.32;85.06
1832;BME280;1680;48.106;11.708;2022-12-29T09:47:19;95373.31;;;8.79;71.77
1832;BME280;1680;48.106;11.708;2022-12-29T09:49:49;95359.06;;;8.51;68.05
1832;BME280;1680;48.106;11.708;2022-12-29T09:52:23;95325.69;;;8.53;67.83
1832;BME280;1680;48.106;11.708;2022-12-29T09:54:57;95359.94;;;8.87;67.70
1832;BME280;1680;48.106;11.708;2022-12-29T09:57:29;95344.66;;;8.91;66.68
1832;BME280;1680;48.106;11.708;2022-12-29T10:00:03;95344.00;;;9.13;66.94
1832;BME280;1680;48.106;11.708;2022-12-29T10:02:37;95347.63;;;9.12;67.43
1832;BME280;1680;48.106;11.708;2022-12-29T10:05:18;95343.19;;;9.13;66.69
1832;BME280;1680;48.106;11.708;2022-12-29T10:07:53;95334.03;;;9.22;65.21
1832;BME280;1680;48.106;11.708;2022-12-29T10:10:32;95349.22;;;9.31;65.69
1832;BME280;1680;48.106;11.708;2022-12-29T10:13:09;95321.97;;;9.21;65.42
1832;BME280;1680;48.106;11.708;2022-12-29T10:15:48;95335.53;;;9.29;66.75
1832;BME280;1680;48.106;11.708;2022-12-29T10:18:49;95329.88;;;9.32;67.10
1832;BME280;1680;48.106;11.708;2022-12-29T10:21:28;95313.97;;;9.34;67.40
1832;BME280;1680;48.106;11.708;2022-12-29T10:24:02;95330.81;;;9.38;67.26
1832;BME280;1680;48.106;11.708;2022-12-29T10:26:36;95319.75;;;9.54;67.22
1832;BME280;1680;48.106;11.708;2022-12-29T10:29:14;95319.47;;;9.62;66.91
1832;BME280;1680;48.106;11.708;2022-12-29T10:31:44;95318.00;;;9.65;66.58
1832;BME280;1680;48.106;11.708;2022-12-29T10:34:20;95329.22;;;9.84;64.89
1832;BME280;1680;48.106;11.708;2022-12-29T10:36:50;95324.19;;;9.82;65.09
1832;BME280;1680;48.106;11.708;2022-12-29T10:39:25;95339.28;;;9.98;64.37
1832;BME280;1680;48.106;11.708;2022-12-29T10:42:02;95317.13;;;10.12;61.71
1832;BME280;1680;48.106;11.708;2022-12-29T10:44:31;95326.59;;;10.13;58.37
1832;BME280;1680;48.106;11.708;2022-12-29T10:47:05;95315.22;;;10.19;56.24
1832;BME280;1680;48.106;11.708;2022-12-29T10:49:39;95327.72;;;10.47;54.17
1832;BME280;1680;48.106;11.708;2022-12-29T10:52:10;95314.94;;;10.50;53.72
1832;BME280;1680;48.106;11.708;2022-12-29T10:54:44;95305.47;;;10.72;53.28
1832;BME280;1680;48.106;11.708;2022-12-29T10:57:18;95304.78;;;10.65;53.47
1832;BME280;1680;48.106;11.708;2022-12-29T10:59:47;95296.34;;;10.63;53.64
1832;BME280;1680;48.106;11.708;2022-12-29T11:02:32;95294.88;;;10.67;53.78
1832;BME280;1680;48.106;11.708;2022-12-29T11:05:09;95291.09;;;10.63;54.57
1832;BME280;1680;48.106;11.708;2022-12-29T11:07:38;95264.88;;;10.86;53.49
1832;BME280;1680;48.106;11.708;2022-12-29T11:10:28;95294.00;;;11.24;51.82
1832;BME280;1680;48.106;11.708;2022-12-29T11:12:58;95268.69;;;11.18;50.42
1832;BME280;1680;48.106;11.708;2022-12-29T11:15:26;95248.53;;;10.95;50.52
1832;BME280;1680;48.106;11.708;2022-12-29T11:17:57;95284.66;;;11.28;51.29
1832;BME280;1680;48.106;11.708;2022-12-29T11:20:35;95236.56;;;10.88;51.48
1832;BME280;1680;48.106;11.708;2022-12-29T11:23:04;95271.59;;;11.33;50.03
1832;BME280;1680;48.106;11.708;2022-12-29T11:25:32;95283.13;;;11.55;49.41
1832;BME280;1680;48.106;11.708;2022-12-29T11:28:02;95276.09;;;11.71;48.38
1832;BME280;1680;48.106;11.708;2022-12-29T11:30:30;95271.47;;;11.78;49.35
1832;BME280;1680;48.106;11.708;2022-12-29T11:32:58;95269.97;;;11.82;48.61
1832;BME280;1680;48.106;11.708;2022-12-29T11:35:35;95259.09;;;11.90;49.02
1832;BME280;1680;48.106;11.708;2022-12-29T11:38:16;95270.09;;;12.53;59.90
1832;BME280;1680;48.106;11.708;2022-12-29T11:40:46;95262.69;;;12.34;50.24
1832;BME280;1680;48.106;11.708;2022-12-29T11:43:21;95266.19;;;12.23;48.04
1832;BME280;1680;48.106;11.708;2022-12-29T11:45:52;95254.16;;;12.10;48.46
1832;BME280;1680;48.106;11.708;2022-12-29T11:48:22;95256.41;;;12.35;47.54
1832;BME280;1680;48.106;11.708;2022-12-29T11:50:55;95259.28;;;12.33;48.20
1832;BME280;1680;48.106;11.708;2022-12-29T11:53:26;95261.50;;;12.25;50.72
1832;BME280;1680;48.106;11.708;2022-12-29T11:55:56;95239.50;;;12.31;48.74
1832;BME280;1680;48.106;11.708;2022-12-29T11:58:29;95246.69;;;12.35;46.13
1832;BME280;1680;48.106;11.708;2022-12-29T12:01:00;95254.47;;;12.47;47.55
1832;BME280;1680;48.106;11.708;2022-12-29T12:03:31;95248.44;;;12.46;47.77
1832;BME280;1680;48.106;11.708;2022-12-29T12:06:04;95250.75;;;12.26;49.06
1832;BME280;1680;48.106;11.708;2022-12-29T12:08:36;95244.06;;;12.35;45.13
1832;BME280;1680;48.106;11.708;2022-12-29T12:11:10;95236.53;;;12.44;45.24
1832;BME280;1680;48.106;11.708;2022-12-29T12:13:41;95251.78;;;12.42;46.76
1832;BME280;1680;48.106;11.708;2022-12-29T12:16:15;95244.34;;;12.55;45.17
1832;BME280;1680;48.106;11.708;2022-12-29T12:18:46;95234.84;;;12.54;44.27
1832;BME280;1680;48.106;11.708;2022-12-29T12:21:21;95250.09;;;12.52;45.01
1832;BME280;1680;48.106;11.708;2022-12-29T12:26:55;95227.72;;;12.33;44.59
1832;BME280;1680;48.106;11.708;2022-12-29T12:29:25;95221.25;;;12.24;45.09
1832;BME280;1680;48.106;11.708;2022-12-29T12:31:58;95221.81;;;11.93;47.45
1832;BME280;1680;48.106;11.708;2022-12-29T12:34:32;95215.94;;;12.19;46.37
1832;BME280;1680;48.106;11.708;2022-12-29T12:37:40;95219.41;;;12.41;46.04
1832;BME280;1680;48.106;11.708;2022-12-29T12:40:48;95213.03;;;12.37;46.50
1832;BME280;1680;48.106;11.708;2022-12-29T12:43:32;95213.13;;;12.42;46.97
1832;BME280;1680;48.106;11.708;2022-12-29T12:46:22;95207.06;;;12.42;45.96
1832;BME280;1680;48.106;11.708;2022-12-29T12:49:01;95210.34;;;12.32;46.08
1832;BME280;1680;48.106;11.708;2022-12-29T12:51:37;95218.25;;;12.32;46.87
1832;BME280;1680;48.106;11.708;2022-12-29T12:54:25;95212.75;;;12.17;47.34
1832;BME280;1680;48.106;11.708;2022-12-29T12:57:08;95214.31;;;12.35;46.91
1832;BME280;1680;48.106;11.708;2022-12-29T12:59:46;95202.84;;;12.24;46.86
1832;BME280;1680;48.106;11.708;2022-12-29T13:02:26;95216.38;;;12.33;47.37
1832;BME280;1680;48.106;11.708;2022-12-29T13:11:13;95211.31;;;12.10;49.56
1832;BME280;1680;48.106;11.708;2022-12-29T13:13:59;95214.81;;;12.15;49.22
1832;BME280;1680;48.106;11.708;2022-12-29T13:16:35;95214.50;;;12.12;49.13
1832;BME280;1680;48.106;11.708;2022-12-29T13:19:12;95175.28;;;11.77;50.04
1832;BME280;1680;48.106;11.708;2022-12-29T13:21:51;95207.97;;;11.98;49.03
1832;BME280;1680;48.106;11.708;2022-12-29T13:24:28;95201.28;;;11.90;49.73
1832;BME280;1680;48.106;11.708;2022-12-29T13:27:05;95189.81;;;11.96;50.22
1832;BME280;1680;48.106;11.708;2022-12-29T13:29:46;95210.34;;;11.99;48.85
1832;BME280;1680;48.106;11.708;2022-12-29T13:32:23;95195.84;;;12.13;49.37
1832;BME280;1680;48.106;11.708;2022-12-29T13:34:59;95202.78;;;11.86;49.83
1832;BME280;1680;48.106;11.708;2022-12-29T13:37:31;95187.34;;;11.73;51.17
1832;BME280;1680;48.106;11.708;2022-12-29T13:40:02;95203.16;;;11.78;51.39
1832;BME280;1680;48.106;11.708;2022-12-29T13:42:32;95206.03;;;11.93;54.31
1832;BME280;1680;48.106;11.708;2022-12-29T13:45:03;95201.56;;;11.77;51.59
1832;BME280;1680;48.106;11.708;2022-12-29T13:47:34;95205.09;;;11.83;51.37
1832;BME280;1680;48.106;11.708;2022-12-29T13:50:13;95203.56;;;11.70;52.69
1832;BME280;1680;48.106;11.708;2022-12-29T13:52:47;95208.72;;;11.65;51.56
1832;BME280;1680;48.106;11.708;2022-12-29T13:55:24;95209.44;;;11.61;52.42
1832;BME280;1680;48.106;11.708;2022-12-29T13:58:00;95165.78;;;11.16;53.05
1832;BME280;1680;48.106;11.708;2022-12-29T14:00:35;95194.25;;;11.24;53.60
1832;BME280;1680;48.106;11.708;2022-12-29T14:03:20;95222.25;;;11.46;53.15